CheckWX is a tool to help pilots better visualize weather data.  It is not intended as a substitute for an official pre-flight weather briefing.

22:59:47 UTC

KCEC TAF
Jack Mc Namara Field Airport
Crescent City, California, USA
KCEC 241810Z 2418/2518 05005KT P6SM FEW250 TEMPO 2418/2420 5SM HZ SCT005 FM242000 34010KT 6SM HZ FEW250 FM250300 VRB04KT P6SM FEW250 FM251400 VRB03KT 5SM BR FEW250

Feb-24@
18:00 UTC

Feb-24 @ 18:00 UTC

Feb-24@
20:00 UTC

Feb-24 @ 20:00 UTC

KCEC 241810Z 2418/2518 05005KT P6SM FEW250

Expired

Wind
  • 050° at 5 KTS
Cloud Levels
  • Few at 25,000' AGL

Feb-24@
18:00 UTC

Feb-24 @ 18:00 UTC

Feb-24@
20:00 UTC

Feb-24 @ 20:00 UTC

TEMPO 2418/2420 5SM HZ SCT005

Expired

Conditions
Haze
Cloud Levels
  • Scattered at 500' AGL

Feb-24@
20:00 UTC

Feb-24 @ 20:00 UTC

Feb-25@
03:00 UTC

Feb-25 @ 03:00 UTC

FM242000 34010KT 6SM HZ FEW250

From

From Standard forecast or significant change

Wind
  • 340° at 10 KTS
Conditions
Haze
Cloud Levels
  • Few at 25,000' AGL

Feb-25@
03:00 UTC

Feb-25 @ 03:00 UTC

Feb-25@
14:00 UTC

Feb-25 @ 14:00 UTC

FM250300 VRB04KT P6SM FEW250

From

From Standard forecast or significant change

Wind
  • Variable at 4 KTS
Cloud Levels
  • Few at 25,000' AGL

Feb-25@
14:00 UTC

Feb-25 @ 14:00 UTC

Feb-25@
18:00 UTC

Feb-25 @ 18:00 UTC

FM251400 VRB03KT 5SM BR FEW250

From

From Standard forecast or significant change

Wind
  • Variable at 3 KTS
Conditions
Mist
Cloud Levels
  • Few at 25,000' AGL